sensor_id;sensor_type;location;lat;lon;timestamp;temperature;humidity
7159;DHT22;63175;52.374;13.132;2023-02-17T00:02:02;9.20;99.90
7159;DHT22;63175;52.374;13.132;2023-02-17T00:04:31;9.30;99.90
7159;DHT22;63175;52.374;13.132;2023-02-17T00:06:58;9.30;99.90
7159;DHT22;63175;52.374;13.132;2023-02-17T00:09:25;9.30;99.90
7159;DHT22;63175;52.374;13.132;2023-02-17T00:11:52;9.30;99.90
7159;DHT22;63175;52.374;13.132;2023-02-17T00:14:19;9.30;99.90
7159;DHT22;63175;52.374;13.132;2023-02-17T00:16:46;9.30;99.90
7159;DHT22;63175;52.374;13.132;2023-02-17T00:19:12;9.30;99.90
7159;DHT22;63175;52.374;13.132;2023-02-17T00:21:57;9.30;99.90
7159;DHT22;63175;52.374;13.132;2023-02-17T00:24:26;9.30;99.90
7159;DHT22;63175;52.374;13.132;2023-02-17T00:26:53;9.30;99.90
7159;DHT22;63175;52.374;13.132;2023-02-17T00:29:20;9.20;99.90
7159;DHT22;63175;52.374;13.132;2023-02-17T00:31:47;9.30;99.90
7159;DHT22;63175;52.374;13.132;2023-02-17T00:34:16;9.20;99.90
7159;DHT22;63175;52.374;13.132;2023-02-17T00:36:42;9.20;99.90
7159;DHT22;63175;52.374;13.132;2023-02-17T00:39:12;9.20;99.90
7159;DHT22;63175;52.374;13.132;2023-02-17T00:41:39;9.20;99.90
7159;DHT22;63175;52.374;13.132;2023-02-17T00:44:06;9.20;99.90
7159;DHT22;63175;52.374;13.132;2023-02-17T00:46:33;9.20;99.90
7159;DHT22;63175;52.374;13.132;2023-02-17T00:49:00;9.10;99.90
7159;DHT22;63175;52.374;13.132;2023-02-17T00:51:26;9.10;99.90
7159;DHT22;63175;52.374;13.132;2023-02-17T00:53:53;9.10;99.90
7159;DHT22;63175;52.374;13.132;2023-02-17T00:56:22;9.10;99.90
7159;DHT22;63175;52.374;13.132;2023-02-17T00:58:48;9.00;99.90
7159;DHT22;63175;52.374;13.132;2023-02-17T01:01:15;9.00;99.90
7159;DHT22;63175;52.374;13.132;2023-02-17T01:03:42;9.00;99.90
7159;DHT22;63175;52.374;13.132;2023-02-17T01:06:15;8.90;99.90
7159;DHT22;63175;52.374;13.132;2023-02-17T01:08:44;8.90;99.90
7159;DHT22;63175;52.374;13.132;2023-02-17T01:11:16;8.90;99.90
7159;DHT22;63175;52.374;13.132;2023-02-17T01:13:44;8.90;99.90
7159;DHT22;63175;52.374;13.132;2023-02-17T01:16:16;8.90;99.90
7159;DHT22;63175;52.374;13.132;2023-02-17T01:18:43;8.80;99.90
7159;DHT22;63175;52.374;13.132;2023-02-17T01:21:15;8.80;99.90
7159;DHT22;63175;52.374;13.132;2023-02-17T01:23:41;8.80;99.90
7159;DHT22;63175;52.374;13.132;2023-02-17T01:26:12;8.80;99.90
7159;DHT22;63175;52.374;13.132;2023-02-17T01:28:39;8.80;99.90
7159;DHT22;63175;52.374;13.132;2023-02-17T01:31:09;8.80;99.90
7159;DHT22;63175;52.374;13.132;2023-02-17T01:33:36;8.70;99.90
7159;DHT22;63175;52.374;13.132;2023-02-17T01:36:04;8.70;99.90
7159;DHT22;63175;52.374;13.132;2023-02-17T01:38:31;8.70;99.90
7159;DHT22;63175;52.374;13.132;2023-02-17T01:40:58;8.70;99.90
7159;DHT22;63175;52.374;13.132;2023-02-17T01:43:25;8.70;99.90
7159;DHT22;63175;52.374;13.132;2023-02-17T01:45:52;8.70;99.90
7159;DHT22;63175;52.374;13.132;2023-02-17T01:48:24;8.70;99.90
7159;DHT22;63175;52.374;13.132;2023-02-17T01:50:54;8.70;99.90
7159;DHT22;63175;52.374;13.132;2023-02-17T01:53:26;8.80;99.90
7159;DHT22;63175;52.374;13.132;2023-02-17T01:55:55;8.80;99.90
7159;DHT22;63175;52.374;13.132;2023-02-17T01:58:23;8.80;99.90
7159;DHT22;63175;52.374;13.132;2023-02-17T02:00:52;8.80;99.90
7159;DHT22;63175;52.374;13.132;2023-02-17T02:03:23;8.70;99.90
7159;DHT22;63175;52.374;13.132;2023-02-17T02:05:50;8.80;99.90
7159;DHT22;63175;52.374;13.132;2023-02-17T02:08:17;8.80;99.90
7159;DHT22;63175;52.374;13.132;2023-02-17T02:10:44;8.70;99.90
7159;DHT22;63175;52.374;13.132;2023-02-17T02:13:11;8.70;99.90
7159;DHT22;63175;52.374;13.132;2023-02-17T02:15:43;8.70;99.90
7159;DHT22;63175;52.374;13.132;2023-02-17T02:18:28;8.70;99.90
7159;DHT22;63175;52.374;13.132;2023-02-17T02:24:18;8.70;99.90
7159;DHT22;63175;52.374;13.132;2023-02-17T02:30:36;8.70;99.90
7159;DHT22;63175;52.374;13.132;2023-02-17T02:33:18;8.70;99.90
7159;DHT22;63175;52.374;13.132;2023-02-17T02:35:53;8.70;99.90
7159;DHT22;63175;52.374;13.132;2023-02-17T02:38:24;8.70;99.90
7159;DHT22;63175;52.374;13.132;2023-02-17T02:40:58;8.60;99.90
7159;DHT22;63175;52.374;13.132;2023-02-17T02:43:29;8.60;99.90
7159;DHT22;63175;52.374;13.132;2023-02-17T02:45:56;8.60;99.90
7159;DHT22;63175;52.374;13.132;2023-02-17T02:48:24;8.50;99.90
7159;DHT22;63175;52.374;13.132;2023-02-17T02:50:59;8.60;99.90
7159;DHT22;63175;52.374;13.132;2023-02-17T02:53:46;8.60;99.90
7159;DHT22;63175;52.374;13.132;2023-02-17T02:56:23;8.60;99.90
7159;DHT22;63175;52.374;13.132;2023-02-17T02:58:57;8.50;99.90
7159;DHT22;63175;52.374;13.132;2023-02-17T03:01:35;8.50;99.90
7159;DHT22;63175;52.374;13.132;2023-02-17T03:04:09;8.60;99.90
7159;DHT22;63175;52.374;13.132;2023-02-17T03:06:44;8.60;99.90
7159;DHT22;63175;52.374;13.132;2023-02-17T03:09:17;8.50;99.90
7159;DHT22;63175;52.374;13.132;2023-02-17T03:11:46;8.50;99.90
7159;DHT22;63175;52.374;13.132;2023-02-17T03:14:14;8.60;99.90
7159;DHT22;63175;52.374;13.132;2023-02-17T03:16:42;8.60;99.90
7159;DHT22;63175;52.374;13.132;2023-02-17T03:19:11;8.50;99.90
7159;DHT22;63175;52.374;13.132;2023-02-17T03:21:41;8.50;99.90
7159;DHT22;63175;52.374;13.132;2023-02-17T03:24:09;8.50;99.90
7159;DHT22;63175;52.374;13.132;2023-02-17T03:26:36;8.50;99.90
7159;DHT22;63175;52.374;13.132;2023-02-17T03:29:03;8.50;99.90
7159;DHT22;63175;52.374;13.132;2023-02-17T03:31:29;8.50;99.90
7159;DHT22;63175;52.374;13.132;2023-02-17T03:33:57;8.50;99.90
7159;DHT22;63175;52.374;13.132;2023-02-17T03:36:25;8.50;99.90
7159;DHT22;63175;52.374;13.132;2023-02-17T03:38:52;8.50;99.90
7159;DHT22;63175;52.374;13.132;2023-02-17T03:41:19;8.50;99.90
7159;DHT22;63175;52.374;13.132;2023-02-17T03:43:45;8.50;99.90
7159;DHT22;63175;52.374;13.132;2023-02-17T03:46:13;8.50;99.90
7159;DHT22;63175;52.374;13.132;2023-02-17T03:48:41;8.50;99.90
7159;DHT22;63175;52.374;13.132;2023-02-17T03:51:12;8.50;99.90
7159;DHT22;63175;52.374;13.132;2023-02-17T03:53:42;8.50;99.90
7159;DHT22;63175;52.374;13.132;2023-02-17T03:56:10;8.50;99.90
7159;DHT22;63175;52.374;13.132;2023-02-17T03:58:37;8.40;99.90
7159;DHT22;63175;52.374;13.132;2023-02-17T04:01:04;8.40;99.90
7159;DHT22;63175;52.374;13.132;2023-02-17T04:03:31;8.40;99.90
7159;DHT22;63175;52.374;13.132;2023-02-17T04:05:58;8.40;99.90
7159;DHT22;63175;52.374;13.132;2023-02-17T04:08:25;8.50;99.90
7159;DHT22;63175;52.374;13.132;2023-02-17T04:10:54;8.40;99.90
7159;DHT22;63175;52.374;13.132;2023-02-17T04:13:21;8.40;99.90
7159;DHT22;63175;52.374;13.132;2023-02-17T04:15:48;8.40;99.90
7159;DHT22;63175;52.374;13.132;2023-02-17T04:18:16;8.30;99.90
7159;DHT22;63175;52.374;13.132;2023-02-17T04:20:43;8.30;99.90
7159;DHT22;63175;52.374;13.132;2023-02-17T04:23:10;8.30;99.90
7159;DHT22;63175;52.374;13.132;2023-02-17T04:25:39;8.30;99.90
7159;DHT22;63175;52.374;13.132;2023-02-17T04:28:07;8.30;99.90
7159;DHT22;63175;52.374;13.132;2023-02-17T04:30:34;8.30;99.90
7159;DHT22;63175;52.374;13.132;2023-02-17T04:33:02;8.30;99.90
7159;DHT22;63175;52.374;13.132;2023-02-17T04:35:29;8.30;99.90
7159;DHT22;63175;52.374;13.132;2023-02-17T04:37:56;8.30;99.90
7159;DHT22;63175;52.374;13.132;2023-02-17T04:40:23;8.30;99.90
7159;DHT22;63175;52.374;13.132;2023-02-17T04:42:50;8.40;99.90
7159;DHT22;63175;52.374;13.132;2023-02-17T04:45:18;8.40;99.90
7159;DHT22;63175;52.374;13.132;2023-02-17T04:47:45;8.40;99.90
7159;DHT22;63175;52.374;13.132;2023-02-17T04:50:12;8.40;99.90
7159;DHT22;63175;52.374;13.132;2023-02-17T04:52:40;8.40;99.90
7159;DHT22;63175;52.374;13.132;2023-02-17T04:55:07;8.40;99.90
7159;DHT22;63175;52.374;13.132;2023-02-17T04:57:35;8.40;99.90
7159;DHT22;63175;52.374;13.132;2023-02-17T05:00:03;8.40;99.90
7159;DHT22;63175;52.374;13.132;2023-02-17T05:02:31;8.40;99.90
7159;DHT22;63175;52.374;13.132;2023-02-17T05:04:58;8.40;99.90
7159;DHT22;63175;52.374;13.132;2023-02-17T05:07:25;8.40;99.90
7159;DHT22;63175;52.374;13.132;2023-02-17T05:09:52;8.30;99.90
7159;DHT22;63175;52.374;13.132;2023-02-17T05:12:19;8.40;99.90
7159;DHT22;63175;52.374;13.132;2023-02-17T05:14:46;8.40;99.90
7159;DHT22;63175;52.374;13.132;2023-02-17T05:17:13;8.30;99.90
7159;DHT22;63175;52.374;13.132;2023-02-17T05:19:41;8.30;99.90
7159;DHT22;63175;52.374;13.132;2023-02-17T05:22:08;8.30;99.90
7159;DHT22;63175;52.374;13.132;2023-02-17T05:24:36;8.30;99.90
7159;DHT22;63175;52.374;13.132;2023-02-17T05:27:03;8.30;99.90
7159;DHT22;63175;52.374;13.132;2023-02-17T05:29:29;8.30;99.90
7159;DHT22;63175;52.374;13.132;2023-02-17T05:31:56;8.40;99.90
7159;DHT22;63175;52.374;13.132;2023-02-17T05:34:23;8.30;99.90
7159;DHT22;63175;52.374;13.132;2023-02-17T05:36:51;8.40;99.90
7159;DHT22;63175;52.374;13.132;2023-02-17T05:39:18;8.40;99.90
7159;DHT22;63175;52.374;13.132;2023-02-17T05:41:45;8.40;99.90
7159;DHT22;63175;52.374;13.132;2023-02-17T05:44:12;8.40;99.90
7159;DHT22;63175;52.374;13.132;2023-02-17T05:46:39;8.40;99.90
7159;DHT22;63175;52.374;13.132;2023-02-17T05:49:05;8.40;99.90
7159;DHT22;63175;52.374;13.132;2023-02-17T05:51:32;8.40;99.90
7159;DHT22;63175;52.374;13.132;2023-02-17T05:54:01;8.40;99.90
7159;DHT22;63175;52.374;13.132;2023-02-17T05:56:27;8.40;99.90
7159;DHT22;63175;52.374;13.132;2023-02-17T05:58:54;8.40;99.90
7159;DHT22;63175;52.374;13.132;2023-02-17T06:01:21;8.50;99.90
7159;DHT22;63175;52.374;13.132;2023-02-17T06:03:48;8.50;99.90
7159;DHT22;63175;52.374;13.132;2023-02-17T06:06:15;8.50;99.90
7159;DHT22;63175;52.374;13.132;2023-02-17T06:08:42;8.50;99.90
7159;DHT22;63175;52.374;13.132;2023-02-17T06:11:10;8.50;99.90
7159;DHT22;63175;52.374;13.132;2023-02-17T06:13:37;8.60;99.90
7159;DHT22;63175;52.374;13.132;2023-02-17T06:16:04;8.60;99.90
7159;DHT22;63175;52.374;13.132;2023-02-17T06:18:32;8.60;99.90
7159;DHT22;63175;52.374;13.132;2023-02-17T06:20:59;8.60;99.90
7159;DHT22;63175;52.374;13.132;2023-02-17T06:23:26;8.60;99.90
7159;DHT22;63175;52.374;13.132;2023-02-17T06:25:53;8.60;99.90
7159;DHT22;63175;52.374;13.132;2023-02-17T06:28:21;8.70;99.90
7159;DHT22;63175;52.374;13.132;2023-02-17T06:30:48;8.70;99.90
7159;DHT22;63175;52.374;13.132;2023-02-17T06:33:15;8.70;99.90
7159;DHT22;63175;52.374;13.132;2023-02-17T06:35:41;8.70;99.90
7159;DHT22;63175;52.374;13.132;2023-02-17T06:38:09;8.70;99.90
7159;DHT22;63175;52.374;13.132;2023-02-17T06:40:36;8.70;99.90
7159;DHT22;63175;52.374;13.132;2023-02-17T06:43:03;8.80;99.90
7159;DHT22;63175;52.374;13.132;2023-02-17T06:45:33;8.80;99.90
7159;DHT22;63175;52.374;13.132;2023-02-17T06:47:59;8.80;99.90
7159;DHT22;63175;52.374;13.132;2023-02-17T06:50:26;8.80;99.90
7159;DHT22;63175;52.374;13.132;2023-02-17T06:52:53;8.80;99.90
7159;DHT22;63175;52.374;13.132;2023-02-17T06:55:20;8.90;99.90
7159;DHT22;63175;52.374;13.132;2023-02-17T06:57:47;8.90;99.90
7159;DHT22;63175;52.374;13.132;2023-02-17T07:00:14;8.90;99.90
7159;DHT22;63175;52.374;13.132;2023-02-17T07:02:42;8.90;99.90
7159;DHT22;63175;52.374;13.132;2023-02-17T07:05:09;9.00;99.90
7159;DHT22;63175;52.374;13.132;2023-02-17T07:07:36;9.00;99.90
7159;DHT22;63175;52.374;13.132;2023-02-17T07:10:04;9.00;99.90
7159;DHT22;63175;52.374;13.132;2023-02-17T07:12:31;9.00;99.90
7159;DHT22;63175;52.374;13.132;2023-02-17T07:14:57;9.10;99.90
7159;DHT22;63175;52.374;13.132;2023-02-17T07:17:24;9.10;99.90
7159;DHT22;63175;52.374;13.132;2023-02-17T07:19:52;9.10;99.90
7159;DHT22;63175;52.374;13.132;2023-02-17T07:22:19;9.10;99.90
7159;DHT22;63175;52.374;13.132;2023-02-17T07:24:46;9.20;99.90
7159;DHT22;63175;52.374;13.132;2023-02-17T07:27:13;9.20;99.90
7159;DHT22;63175;52.374;13.132;2023-02-17T07:29:40;9.20;99.90
7159;DHT22;63175;52.374;13.132;2023-02-17T07:32:07;9.20;99.90
7159;DHT22;63175;52.374;13.132;2023-02-17T07:34:34;9.20;99.90
7159;DHT22;63175;52.374;13.132;2023-02-17T07:37:02;9.30;99.90
7159;DHT22;63175;52.374;13.132;2023-02-17T07:39:29;9.30;99.90
7159;DHT22;63175;52.374;13.132;2023-02-17T07:41:55;9.30;99.90
7159;DHT22;63175;52.374;13.132;2023-02-17T07:44:25;9.30;99.90
7159;DHT22;63175;52.374;13.132;2023-02-17T07:46:52;9.30;99.90
7159;DHT22;63175;52.374;13.132;2023-02-17T07:49:19;9.40;99.90
7159;DHT22;63175;52.374;13.132;2023-02-17T07:51:45;9.40;99.90
7159;DHT22;63175;52.374;13.132;2023-02-17T07:54:14;9.40;99.90
7159;DHT22;63175;52.374;13.132;2023-02-17T07:56:41;9.50;99.90
7159;DHT22;63175;52.374;13.132;2023-02-17T07:59:08;9.50;99.90
7159;DHT22;63175;52.374;13.132;2023-02-17T08:01:35;9.50;99.90
7159;DHT22;63175;52.374;13.132;2023-02-17T08:04:02;9.50;99.90
7159;DHT22;63175;52.374;13.132;2023-02-17T08:06:29;9.50;99.90
7159;DHT22;63175;52.374;13.132;2023-02-17T08:08:57;9.60;99.90
7159;DHT22;63175;52.374;13.132;2023-02-17T08:11:43;9.60;99.90
7159;DHT22;63175;52.374;13.132;2023-02-17T08:14:29;9.60;99.90
7159;DHT22;63175;52.374;13.132;2023-02-17T08:16:56;9.60;99.90
7159;DHT22;63175;52.374;13.132;2023-02-17T08:19:24;9.60;99.90
7159;DHT22;63175;52.374;13.132;2023-02-17T08:21:51;9.60;99.90
7159;DHT22;63175;52.374;13.132;2023-02-17T08:24:18;9.70;99.90
7159;DHT22;63175;52.374;13.132;2023-02-17T08:26:47;9.70;99.90
7159;DHT22;63175;52.374;13.132;2023-02-17T08:29:14;9.70;99.90
7159;DHT22;63175;52.374;13.132;2023-02-17T08:31:41;9.70;99.90
7159;DHT22;63175;52.374;13.132;2023-02-17T08:34:10;9.70;99.90
7159;DHT22;63175;52.374;13.132;2023-02-17T08:36:38;9.70;99.90
7159;DHT22;63175;52.374;13.132;2023-02-17T08:39:11;9.80;99.90
7159;DHT22;63175;52.374;13.132;2023-02-17T08:41:39;9.70;99.90
7159;DHT22;63175;52.374;13.132;2023-02-17T08:44:09;9.70;99.90
7159;DHT22;63175;52.374;13.132;2023-02-17T08:46:36;9.80;99.90
7159;DHT22;63175;52.374;13.132;2023-02-17T08:49:03;9.80;99.90
7159;DHT22;63175;52.374;13.132;2023-02-17T08:51:30;9.80;99.90
7159;DHT22;63175;52.374;13.132;2023-02-17T08:53:58;9.80;99.90
7159;DHT22;63175;52.374;13.132;2023-02-17T08:56:26;9.80;99.90
7159;DHT22;63175;52.374;13.132;2023-02-17T08:58:54;9.80;99.90
7159;DHT22;63175;52.374;13.132;2023-02-17T09:01:23;9.80;99.90
7159;DHT22;63175;52.374;13.132;2023-02-17T09:03:52;9.80;99.90
7159;DHT22;63175;52.374;13.132;2023-02-17T09:06:20;9.80;99.90
7159;DHT22;63175;52.374;13.132;2023-02-17T09:08:47;9.80;99.90
7159;DHT22;63175;52.374;13.132;2023-02-17T09:11:14;9.80;99.90
7159;DHT22;63175;52.374;13.132;2023-02-17T09:13:42;9.80;99.90
7159;DHT22;63175;52.374;13.132;2023-02-17T09:16:09;9.80;99.90
7159;DHT22;63175;52.374;13.132;2023-02-17T09:18:37;9.80;99.90
7159;DHT22;63175;52.374;13.132;2023-02-17T09:21:05;9.80;99.90
7159;DHT22;63175;52.374;13.132;2023-02-17T09:23:33;9.80;99.90
7159;DHT22;63175;52.374;13.132;2023-02-17T09:26:01;9.80;99.90
7159;DHT22;63175;52.374;13.132;2023-02-17T09:28:29;9.80;99.90
7159;DHT22;63175;52.374;13.132;2023-02-17T09:30:56;9.80;99.90
7159;DHT22;63175;52.374;13.132;2023-02-17T09:33:23;9.80;99.90
7159;DHT22;63175;52.374;13.132;2023-02-17T09:35:52;9.80;99.90
7159;DHT22;63175;52.374;13.132;2023-02-17T09:38:19;9.80;99.90
7159;DHT22;63175;52.374;13.132;2023-02-17T09:40:47;9.80;99.90
7159;DHT22;63175;52.374;13.132;2023-02-17T09:43:16;9.80;99.90
7159;DHT22;63175;52.374;13.132;2023-02-17T09:45:48;9.80;99.90
7159;DHT22;63175;52.374;13.132;2023-02-17T09:48:18;9.80;99.90
7159;DHT22;63175;52.374;13.132;2023-02-17T09:50:52;9.80;99.90
7159;DHT22;63175;52.374;13.132;2023-02-17T09:53:25;9.80;99.90
7159;DHT22;63175;52.374;13.132;2023-02-17T09:55:54;9.80;99.90
7159;DHT22;63175;52.374;13.132;2023-02-17T09:58:24;9.80;99.90
7159;DHT22;63175;52.374;13.132;2023-02-17T10:00:54;9.80;99.90
7159;DHT22;63175;52.374;13.132;2023-02-17T10:03:25;9.80;99.90
7159;DHT22;63175;52.374;13.132;2023-02-17T10:06:04;9.80;99.90
7159;DHT22;63175;52.374;13.132;2023-02-17T10:08:38;9.80;99.90
7159;DHT22;63175;52.374;13.132;2023-02-17T10:11:13;9.80;99.90
7159;DHT22;63175;52.374;13.132;2023-02-17T10:13:44;9.80;99.90
7159;DHT22;63175;52.374;13.132;2023-02-17T10:16:16;9.80;99.90
7159;DHT22;63175;52.374;13.132;2023-02-17T10:18:49;9.80;99.90
7159;DHT22;63175;52.374;13.132;2023-02-17T10:21:24;9.90;99.90
7159;DHT22;63175;52.374;13.132;2023-02-17T10:23:52;9.90;99.90
7159;DHT22;63175;52.374;13.132;2023-02-17T10:26:25;9.90;99.90
7159;DHT22;63175;52.374;13.132;2023-02-17T10:28:57;9.90;99.90
7159;DHT22;63175;52.374;13.132;2023-02-17T10:31:34;10.00;99.90
7159;DHT22;63175;52.374;13.132;2023-02-17T10:34:11;10.00;99.90
7159;DHT22;63175;52.374;13.132;2023-02-17T10:36:50;10.00;99.90
7159;DHT22;63175;52.374;13.132;2023-02-17T10:39:34;10.00;99.90
7159;DHT22;63175;52.374;13.132;2023-02-17T10:42:04;10.00;99.90
7159;DHT22;63175;52.374;13.132;2023-02-17T10:44:35;10.00;99.90
7159;DHT22;63175;52.374;13.132;2023-02-17T10:47:03;10.10;99.90
7159;DHT22;63175;52.374;13.132;2023-02-17T10:49:33;10.10;99.90
7159;DHT22;63175;52.374;13.132;2023-02-17T10:52:04;10.10;99.90
7159;DHT22;63175;52.374;13.132;2023-02-17T10:54:38;10.10;99.90
7159;DHT22;63175;52.374;13.132;2023-02-17T10:57:10;10.20;99.90
7159;DHT22;63175;52.374;13.132;2023-02-17T10:59:40;10.20;99.90
7159;DHT22;63175;52.374;13.132;2023-02-17T11:02:17;10.30;99.90
7159;DHT22;63175;52.374;13.132;2023-02-17T11:04:48;10.30;99.90
7159;DHT22;63175;52.374;13.132;2023-02-17T11:07:18;10.30;99.90
7159;DHT22;63175;52.374;13.132;2023-02-17T11:09:50;10.40;99.90
7159;DHT22;63175;52.374;13.132;2023-02-17T11:12:21;10.40;99.90
7159;DHT22;63175;52.374;13.132;2023-02-17T11:14:53;10.40;99.90
7159;DHT22;63175;52.374;13.132;2023-02-17T11:17:25;10.50;99.90
7159;DHT22;63175;52.374;13.132;2023-02-17T11:19:55;10.50;99.90
7159;DHT22;63175;52.374;13.132;2023-02-17T11:22:31;10.60;99.90
7159;DHT22;63175;52.374;13.132;2023-02-17T11:25:01;10.70;99.90
7159;DHT22;63175;52.374;13.132;2023-02-17T11:27:28;10.70;99.90
7159;DHT22;63175;52.374;13.132;2023-02-17T11:30:06;10.70;99.90
7159;DHT22;63175;52.374;13.132;2023-02-17T11:32:33;10.70;99.90
7159;DHT22;63175;52.374;13.132;2023-02-17T11:35:00;10.80;99.90
7159;DHT22;63175;52.374;13.132;2023-02-17T11:37:36;10.80;99.90
7159;DHT22;63175;52.374;13.132;2023-02-17T11:40:22;10.90;99.90
7159;DHT22;63175;52.374;13.132;2023-02-17T11:42:55;10.90;99.90
7159;DHT22;63175;52.374;13.132;2023-02-17T11:45:22;10.90;99.90
7159;DHT22;63175;52.374;13.132;2023-02-17T11:47:57;11.00;99.90
7159;DHT22;63175;52.374;13.132;2023-02-17T11:50:29;11.00;99.90
7159;DHT22;63175;52.374;13.132;2023-02-17T11:53:13;11.10;99.90
7159;DHT22;63175;52.374;13.132;2023-02-17T11:55:49;11.10;99.90
7159;DHT22;63175;52.374;13.132;2023-02-17T11:58:29;11.10;99.90
7159;DHT22;63175;52.374;13.132;2023-02-17T12:01:08;11.20;99.90
7159;DHT22;63175;52.374;13.132;2023-02-17T12:03:53;11.20;99.90
7159;DHT22;63175;52.374;13.132;2023-02-17T12:06:35;11.20;99.90
7159;DHT22;63175;52.374;13.132;2023-02-17T12:09:09;11.30;99.90
7159;DHT22;63175;52.374;13.132;2023-02-17T12:11:44;11.30;99.90
7159;DHT22;63175;52.374;13.132;2023-02-17T12:14:29;11.30;99.90
7159;DHT22;63175;52.374;13.132;2023-02-17T12:17:04;11.40;99.90
7159;DHT22;63175;52.374;13.132;2023-02-17T12:19:43;11.40;99.90
7159;DHT22;63175;52.374;13.132;2023-02-17T12:22:16;11.40;99.90
7159;DHT22;63175;52.374;13.132;2023-02-17T12:25:12;11.40;99.90
7159;DHT22;63175;52.374;13.132;2023-02-17T12:27:52;11.50;99.90
7159;DHT22;63175;52.374;13.132;2023-02-17T12:30:34;11.60;99.90
7159;DHT22;63175;52.374;13.132;2023-02-17T12:33:32;11.60;99.90
7159;DHT22;63175;52.374;13.132;2023-02-17T12:36:04;11.70;99.90
7159;DHT22;63175;52.374;13.132;2023-02-17T12:38:37;11.70;99.90
7159;DHT22;63175;52.374;13.132;2023-02-17T12:41:10;11.80;99.90
7159;DHT22;63175;52.374;13.132;2023-02-17T12:43:41;11.90;99.90
7159;DHT22;63175;52.374;13.132;2023-02-17T12:46:13;12.00;99.90
7159;DHT22;63175;52.374;13.132;2023-02-17T12:48:46;12.00;99.90
7159;DHT22;63175;52.374;13.132;2023-02-17T12:51:20;12.10;99.90
7159;DHT22;63175;52.374;13.132;2023-02-17T12:53:50;12.20;99.90
7159;DHT22;63175;52.374;13.132;2023-02-17T12:59:30;12.30;99.90
7159;DHT22;63175;52.374;13.132;2023-02-17T13:01:59;12.40;99.90
7159;DHT22;63175;52.374;13.132;2023-02-17T13:04:27;12.40;99.90
7159;DHT22;63175;52.374;13.132;2023-02-17T13:07:07;12.40;99.90
7159;DHT22;63175;52.374;13.132;2023-02-17T13:09:37;12.40;99.90
7159;DHT22;63175;52.374;13.132;2023-02-17T13:12:29;12.50;99.90
7159;DHT22;63175;52.374;13.132;2023-02-17T13:14:58;12.50;99.90
7159;DHT22;63175;52.374;13.132;2023-02-17T13:17:27;12.50;99.90
7159;DHT22;63175;52.374;13.132;2023-02-17T13:20:23;12.50;99.90
7159;DHT22;63175;52.374;13.132;2023-02-17T13:23:03;12.60;99.90
7159;DHT22;63175;52.374;13.132;2023-02-17T13:25:33;12.60;99.90
7159;DHT22;63175;52.374;13.132;2023-02-17T13:28:02;12.60;99.90
7159;DHT22;63175;52.374;13.132;2023-02-17T13:30:43;12.60;99.90
7159;DHT22;63175;52.374;13.132;2023-02-17T13:33:26;12.60;99.90
7159;DHT22;63175;52.374;13.132;2023-02-17T13:35:53;12.70;99.90
7159;DHT22;63175;52.374;13.132;2023-02-17T13:38:28;12.70;99.90
7159;DHT22;63175;52.374;13.132;2023-02-17T13:40:58;12.70;99.90
7159;DHT22;63175;52.374;13.132;2023-02-17T13:43:27;12.70;99.90
7159;DHT22;63175;52.374;13.132;2023-02-17T13:45:57;12.70;99.90
7159;DHT22;63175;52.374;13.132;2023-02-17T13:48:27;12.70;99.90
7159;DHT22;63175;52.374;13.132;2023-02-17T13:50:55;12.80;99.90
7159;DHT22;63175;52.374;13.132;2023-02-17T13:53:26;12.80;99.90
7159;DHT22;63175;52.374;13.132;2023-02-17T13:55:54;12.80;99.90
7159;DHT22;63175;52.374;13.132;2023-02-17T13:58:27;12.90;99.90
7159;DHT22;63175;52.374;13.132;2023-02-17T14:00:55;12.90;99.90
7159;DHT22;63175;52.374;13.132;2023-02-17T14:03:24;12.90;99.90
7159;DHT22;63175;52.374;13.132;2023-02-17T14:05:53;12.90;99.90
7159;DHT22;63175;52.374;13.132;2023-02-17T14:08:27;12.90;99.90
7159;DHT22;63175;52.374;13.132;2023-02-17T14:10:55;12.90;99.90
7159;DHT22;63175;52.374;13.132;2023-02-17T14:13:23;12.90;99.90
7159;DHT22;63175;52.374;13.132;2023-02-17T14:15:54;13.00;99.90
7159;DHT22;63175;52.374;13.132;2023-02-17T14:18:29;13.00;99.90
7159;DHT22;63175;52.374;13.132;2023-02-17T14:21:04;13.00;99.90
7159;DHT22;63175;52.374;13.132;2023-02-17T14:23:46;13.00;99.90
7159;DHT22;63175;52.374;13.132;2023-02-17T14:26:25;13.00;99.90
7159;DHT22;63175;52.374;13.132;2023-02-17T14:28:54;13.00;99.90
7159;DHT22;63175;52.374;13.132;2023-02-17T14:31:22;13.00;99.90
7159;DHT22;63175;52.374;13.132;2023-02-17T14:33:55;13.00;99.90
7159;DHT22;63175;52.374;13.132;2023-02-17T14:36:27;13.00;99.90
7159;DHT22;63175;52.374;13.132;2023-02-17T14:38:56;13.00;99.90
7159;DHT22;63175;52.374;13.132;2023-02-17T14:41:23;13.00;99.90
7159;DHT22;63175;52.374;13.132;2023-02-17T14:43:51;13.00;99.90
7159;DHT22;63175;52.374;13.132;2023-02-17T14:46:18;13.00;99.90
7159;DHT22;63175;52.374;13.132;2023-02-17T14:48:47;13.10;99.90
7159;DHT22;63175;52.374;13.132;2023-02-17T14:51:16;13.10;99.90
7159;DHT22;63175;52.374;13.132;2023-02-17T14:53:43;13.20;99.90
7159;DHT22;63175;52.374;13.132;2023-02-17T14:56:16;13.10;99.90
7159;DHT22;63175;52.374;13.132;2023-02-17T14:58:45;13.10;99.90
7159;DHT22;63175;52.374;13.132;2023-02-17T15:01:13;13.10;99.90
7159;DHT22;63175;52.374;13.132;2023-02-17T15:03:40;13.00;99.90
7159;DHT22;63175;52.374;13.132;2023-02-17T15:06:13;13.00;99.90
7159;DHT22;63175;52.374;13.132;2023-02-17T15:08:40;12.90;99.90
7159;DHT22;63175;52.374;13.132;2023-02-17T15:11:15;12.80;99.90
7159;DHT22;63175;52.374;13.132;2023-02-17T15:13:43;12.80;99.90
7159;DHT22;63175;52.374;13.132;2023-02-17T15:16:10;12.70;99.90
7159;DHT22;63175;52.374;13.132;2023-02-17T15:18:37;12.60;99.90
7159;DHT22;63175;52.374;13.132;2023-02-17T15:21:15;12.50;99.90
7159;DHT22;63175;52.374;13.132;2023-02-17T15:23:42;12.50;99.90
7159;DHT22;63175;52.374;13.132;2023-02-17T15:26:09;12.40;99.90
7159;DHT22;63175;52.374;13.132;2023-02-17T15:28:36;12.30;99.90
7159;DHT22;63175;52.374;13.132;2023-02-17T15:31:03;12.30;99.90
7159;DHT22;63175;52.374;13.132;2023-02-17T15:33:30;12.20;99.90
7159;DHT22;63175;52.374;13.132;2023-02-17T15:35:57;12.20;99.90
7159;DHT22;63175;52.374;13.132;2023-02-17T15:38:26;12.10;99.90
7159;DHT22;63175;52.374;13.132;2023-02-17T15:40:52;12.10;99.90
7159;DHT22;63175;52.374;13.132;2023-02-17T15:43:30;12.10;99.90
7159;DHT22;63175;52.374;13.132;2023-02-17T15:45:58;12.10;99.90
7159;DHT22;63175;52.374;13.132;2023-02-17T15:48:26;12.00;99.90
7159;DHT22;63175;52.374;13.132;2023-02-17T15:50:54;12.00;99.90
7159;DHT22;63175;52.374;13.132;2023-02-17T15:53:21;12.00;99.90
7159;DHT22;63175;52.374;13.132;2023-02-17T15:55:50;12.00;99.90
7159;DHT22;63175;52.374;13.132;2023-02-17T15:58:20;12.00;99.90
7159;DHT22;63175;52.374;13.132;2023-02-17T16:00:47;12.00;99.90
7159;DHT22;63175;52.374;13.132;2023-02-17T16:03:15;12.00;99.90
7159;DHT22;63175;52.374;13.132;2023-02-17T16:05:43;12.00;99.90
7159;DHT22;63175;52.374;13.132;2023-02-17T16:08:09;12.00;99.90